^^
Your Local Weather - Clay, NY Station Historical Data
Daily Summary for April 2, 2017 Units:  English    Metric   Both
« Previous Day
Next Day »
Daily Weekly Monthly Yearly Custom
  High: Low: Average:
Temperature: 55.1 °F 28.2 °F 41.4 °F
Dew Point: 36.2 °F 26.4 °F 31.2 °F
Humidity: 94% 39% 71%
Wind Speed: 5.0mph 0.0mph 1.4mph
Wind Gust: 9.0mph - -
Wind- - WNW
Pressure: 30.13 in 30.05 in -
Precipitation: 0.00 in    
Historical Graphs
 
 
Tabular Data for April 2, 2017
Time Temperature Dew Point Pressure Wind Wind Speed Wind Gust Humidity Rainfall Rate (Hourly) solar
00:00 31.6 °F 29.5 °F 30.10 in Calm     92% 0.00 in 0 W/m2
00:02 31.7 °F 29.6 °F 30.10 in Calm     92% 0.00 in 0 W/m2
00:08 31.8 °F 29.7 °F 30.10 in Calm     92% 0.00 in 0 W/m2
00:14 32.0 °F 29.9 °F 30.10 in Calm     92% 0.00 in 0 W/m2
00:20 32.1 °F 30.0 °F 30.10 in Calm     92% 0.00 in 0 W/m2
00:26 32.2 °F 30.1 °F 30.10 in Calm     92% 0.00 in 0 W/m2
00:32 32.4 °F 30.3 °F 30.10 in Calm     92% 0.00 in 0 W/m2
00:38 32.6 °F 30.5 °F 30.10 in Calm     92% 0.00 in 0 W/m2
00:44 32.7 °F 30.6 °F 30.10 in Calm     92% 0.00 in 0 W/m2
00:50 32.7 °F 30.6 °F 30.10 in Calm     92% 0.00 in 0 W/m2
00:56 32.7 °F 30.6 °F 30.10 in Calm     92% 0.00 in 0 W/m2
01:02 32.7 °F 30.6 °F 30.10 in Calm     92% 0.00 in 0 W/m2
01:08 32.8 °F 30.7 °F 30.10 in Calm     92% 0.00 in 0 W/m2
01:14 32.7 °F 30.6 °F 30.09 in Calm     92% 0.00 in 0 W/m2
01:20 32.6 °F 30.5 °F 30.09 in Calm     92% 0.00 in 0 W/m2
01:26 32.4 °F 30.6 °F 30.10 in Calm     93% 0.00 in 0 W/m2
01:32 32.3 °F 30.2 °F 30.09 in Calm     92% 0.00 in 0 W/m2
01:38 32.1 °F 30.0 °F 30.09 in Calm     92% 0.00 in 0 W/m2
01:44 31.9 °F 29.8 °F 30.09 in Calm     92% 0.00 in 0 W/m2
01:50 31.7 °F 29.9 °F 30.10 in Calm     93% 0.00 in 0 W/m2
01:56 31.6 °F 29.5 °F 30.09 in Calm     92% 0.00 in 0 W/m2
02:02 31.5 °F 29.4 °F 30.09 in Calm     92% 0.00 in 0 W/m2
02:08 31.5 °F 29.4 °F 30.09 in Calm     92% 0.00 in 0 W/m2
02:14 31.6 °F 29.8 °F 30.09 in Calm     93% 0.00 in 0 W/m2
02:20 31.6 °F 29.8 °F 30.09 in Calm     93% 0.00 in 0 W/m2
02:25 31.4 °F 29.6 °F 30.09 in Calm     93% 0.00 in 0 W/m2
02:32 31.3 °F 29.5 °F 30.08 in Calm     93% 0.00 in 0 W/m2
02:38 31.0 °F 28.9 °F 30.08 in Calm     92% 0.00 in 0 W/m2
02:44 30.9 °F 29.1 °F 30.08 in Calm     93% 0.00 in 0 W/m2
02:50 30.7 °F 28.9 °F 30.08 in Calm     93% 0.00 in 0 W/m2
02:56 30.6 °F 28.6 °F 30.08 in Calm     92% 0.00 in 0 W/m2
03:02 30.3 °F 28.5 °F 30.08 in Calm     93% 0.00 in 0 W/m2
03:06 30.2 °F 28.4 °F 30.08 in Calm     93% 0.00 in 0 W/m2
03:12 29.9 °F 27.9 °F 30.08 in Calm     92% 0.00 in 0 W/m2
03:18 29.7 °F 27.7 °F 30.08 in Calm     92% 0.00 in 0 W/m2
03:24 29.6 °F 27.8 °F 30.08 in Calm     93% 0.00 in 0 W/m2
03:30 29.5 °F 27.7 °F 30.08 in Calm     93% 0.00 in 0 W/m2
03:36 29.3 °F 27.5 °F 30.08 in Calm     93% 0.00 in 0 W/m2
03:42 29.3 °F 27.5 °F 30.08 in Calm     93% 0.00 in 0 W/m2
03:48 29.3 °F 27.5 °F 30.08 in Calm     93% 0.00 in 0 W/m2
03:54 29.4 °F 27.6 °F 30.08 in Calm   2.0 mph 93% 0.00 in 0 W/m2
04:00 29.6 °F 27.8 °F 30.08 in Calm     93% 0.00 in 0 W/m2
04:06 30.0 °F 28.2 °F 30.08 in Calm     93% 0.00 in 0 W/m2
04:12 30.3 °F 28.5 °F 30.08 in Calm     93% 0.00 in 0 W/m2
04:18 30.5 °F 28.7 °F 30.08 in Calm     93% 0.00 in 0 W/m2
04:24 30.5 °F 28.7 °F 30.08 in Calm     93% 0.00 in 0 W/m2
04:30 30.4 °F 28.6 °F 30.08 in Calm     93% 0.00 in 0 W/m2
04:36 30.1 °F 28.3 °F 30.08 in Calm     93% 0.00 in 0 W/m2
04:42 29.9 °F 28.1 °F 30.08 in Calm     93% 0.00 in 0 W/m2
04:48 29.6 °F 27.8 °F 30.08 in Calm     93% 0.00 in 0 W/m2
04:54 29.5 °F 27.7 °F 30.08 in Calm     93% 0.00 in 0 W/m2
05:00 29.4 °F 27.6 °F 30.09 in Calm     93% 0.00 in 0 W/m2
05:06 29.3 °F 27.5 °F 30.09 in Calm     93% 0.00 in 0 W/m2
05:12 29.1 °F 27.3 °F 30.10 in Calm     93% 0.00 in 0 W/m2
05:18 28.8 °F 27.0 °F 30.10 in Calm     93% 0.00 in 0 W/m2
05:26 28.7 °F 26.9 °F 30.10 in Calm     93% 0.00 in 0 W/m2
05:32 28.6 °F 26.8 °F 30.10 in Calm     93% 0.00 in 0 W/m2
05:38 28.5 °F 26.7 °F 30.11 in Calm     93% 0.00 in 0 W/m2
05:44 28.4 °F 26.6 °F 30.11 in Calm     93% 0.00 in 0 W/m2
05:50 28.3 °F 26.5 °F 30.11 in Calm     93% 0.00 in 0 W/m2
05:56 28.4 °F 26.6 °F 30.11 in Calm     93% 0.00 in 0 W/m2
06:02 28.4 °F 26.6 °F 30.11 in Calm     93% 0.00 in 0 W/m2
06:08 28.4 °F 26.6 °F 30.11 in Calm     93% 0.00 in 0 W/m2
06:14 28.3 °F 26.5 °F 30.12 in Calm     93% 0.00 in 0 W/m2
06:19 28.2 °F 26.4 °F 30.12 in Calm     93% 0.00 in 0 W/m2
06:26 28.2 °F 26.4 °F 30.12 in Calm     93% 0.00 in 0 W/m2
06:32 28.4 °F 26.6 °F 30.12 in Calm     93% 0.00 in 0 W/m2
06:38 28.4 °F 26.6 °F 30.12 in Calm     93% 0.00 in 0 W/m2
06:44 28.3 °F 26.5 °F 30.12 in Calm     93% 0.00 in 0 W/m2
06:50 28.4 °F 26.6 °F 30.12 in Calm     93% 0.00 in 7 W/m2
06:56 28.4 °F 26.6 °F 30.12 in Calm     93% 0.00 in 9 W/m2
07:02 28.3 °F 26.5 °F 30.12 in Calm     93% 0.00 in 12 W/m2
07:08 28.3 °F 26.5 °F 30.12 in Calm     93% 0.00 in 18 W/m2
07:14 28.3 °F 26.5 °F 30.13 in Calm     93% 0.00 in 26 W/m2
07:20 28.5 °F 26.7 °F 30.12 in Calm     93% 0.00 in 44 W/m2
07:26 28.9 °F 27.1 °F 30.12 in Calm     93% 0.00 in 54 W/m2
07:32 29.3 °F 27.5 °F 30.12 in Calm     93% 0.00 in 58 W/m2
07:38 29.9 °F 28.1 °F 30.12 in Calm     93% 0.00 in 56 W/m2
07:44 30.5 °F 28.7 °F 30.12 in Calm     93% 0.00 in 65 W/m2
07:50 31.0 °F 29.5 °F 30.12 in Calm     94% 0.00 in 90 W/m2
07:56 31.4 °F 29.9 °F 30.12 in Calm     94% 0.00 in 121 W/m2
08:02 32.0 °F 30.5 °F 30.12 in Calm     94% 0.00 in 155 W/m2
08:08 33.1 °F 31.6 °F 30.13 in Calm     94% 0.00 in 211 W/m2
08:14 33.6 °F 32.1 °F 30.13 in Calm     94% 0.00 in 56 W/m2
08:20 33.3 °F 31.8 °F 30.13 in Calm     94% 0.00 in 60 W/m2
08:26 33.3 °F 31.8 °F 30.13 in Calm     94% 0.00 in 171 W/m2
08:32 34.1 °F 32.6 °F 30.13 in Calm     94% 0.00 in 118 W/m2
08:38 34.6 °F 33.1 °F 30.13 in Calm     94% 0.00 in 132 W/m2
08:44 35.2 °F 33.6 °F 30.13 in Calm     94% 0.00 in 100 W/m2
08:50 35.4 °F 33.8 °F 30.13 in Calm     94% 0.00 in 104 W/m2
08:56 35.8 °F 34.2 °F 30.13 in Calm     94% 0.00 in 141 W/m2
09:02 36.4 °F 34.8 °F 30.13 in Calm   1.0 mph 94% 0.00 in 132 W/m2
09:08 36.9 °F 35.3 °F 30.13 in Calm   1.0 mph 94% 0.00 in 171 W/m2
09:14 37.5 °F 35.9 °F 30.13 in Calm   1.0 mph 94% 0.00 in 151 W/m2
09:20 37.8 °F 36.0 °F 30.13 in WSW 1.0 mph 1.0 mph 93% 0.00 in 98 W/m2
09:25 38.3 °F 35.6 °F 30.12 in WSW 1.0 mph 1.0 mph 90% 0.00 in 294 W/m2
09:32 39.5 °F 36.0 °F 30.12 in WSW 1.0 mph 3.0 mph 87% 0.00 in 359 W/m2
09:38 40.6 °F 34.9 °F 30.13 in SW 2.0 mph 4.0 mph 80% 0.00 in 571 W/m2
09:44 41.2 °F 33.9 °F 30.13 in West 2.0 mph 2.0 mph 75% 0.00 in 197 W/m2
09:50 41.1 °F 33.1 °F 30.13 in West 2.0 mph 4.0 mph 73% 0.00 in 176 W/m2
09:56 42.3 °F 33.9 °F 30.13 in WSW 2.0 mph 4.0 mph 72% 0.00 in 605 W/m2
10:02 43.6 °F 34.8 °F 30.13 in WSW 1.0 mph 1.0 mph 71% 0.00 in 591 W/m2
10:08 44.9 °F 34.6 °F 30.13 in West 1.0 mph 4.0 mph 67% 0.00 in 615 W/m2
10:14 45.7 °F 35.0 °F 30.13 in West 1.0 mph 3.0 mph 66% 0.00 in 345 W/m2
10:20 45.9 °F 34.4 °F 30.13 in NW 1.0 mph 3.0 mph 64% 0.00 in 387 W/m2
10:26 45.3 °F 32.6 °F 30.13 in WNW 3.0 mph 3.0 mph 61% 0.00 in 422 W/m2
10:32 45.7 °F 33.8 °F 30.13 in West 2.0 mph 3.0 mph 63% 0.00 in 323 W/m2
10:38 46.2 °F 32.7 °F 30.13 in NW 2.0 mph 4.0 mph 59% 0.00 in 360 W/m2
10:44 46.8 °F 33.2 °F 30.13 in NW 2.0 mph 6.0 mph 59% 0.00 in 679 W/m2
10:50 47.2 °F 33.2 °F 30.13 in WNW 2.0 mph 2.0 mph 58% 0.00 in 682 W/m2
10:56 47.7 °F 33.2 °F 30.13 in NW 3.0 mph 4.0 mph 57% 0.00 in 696 W/m2
11:02 48.4 °F 33.0 °F 30.12 in WNW 3.0 mph 3.0 mph 55% 0.00 in 712 W/m2
11:08 48.7 °F 35.4 °F 30.13 in West 3.0 mph 4.0 mph 60% 0.00 in 722 W/m2
11:14 49.0 °F 34.4 °F 30.12 in West 2.0 mph 5.0 mph 57% 0.00 in 733 W/m2
11:20 48.5 °F 34.4 °F 30.12 in SSW 2.0 mph 2.0 mph 58% 0.00 in 745 W/m2
11:26 50.4 °F 36.2 °F 30.11 in NNW 2.0 mph 3.0 mph 58% 0.00 in 758 W/m2
11:32 50.5 °F 33.0 °F 30.11 in NW 2.0 mph 6.0 mph 51% 0.00 in 763 W/m2
11:38 50.1 °F 33.1 °F 30.11 in West 4.0 mph 6.0 mph 52% 0.00 in 772 W/m2
11:44 50.0 °F 34.5 °F 30.11 in WNW 5.0 mph 7.0 mph 55% 0.00 in 779 W/m2
11:50 50.4 °F 32.9 °F 30.11 in WNW 4.0 mph 5.0 mph 51% 0.00 in 789 W/m2
11:56 50.7 °F 31.2 °F 30.11 in West 4.0 mph 6.0 mph 47% 0.00 in 795 W/m2
12:02 50.7 °F 33.2 °F 30.10 in NW 4.0 mph 5.0 mph 51% 0.00 in 802 W/m2
12:08 50.7 °F 31.7 °F 30.10 in WSW 5.0 mph 7.0 mph 48% 0.00 in 807 W/m2
12:14 51.0 °F 30.4 °F 30.10 in WSW 5.0 mph 7.0 mph 45% 0.00 in 810 W/m2
12:20 51.7 °F 31.0 °F 30.10 in WNW 4.0 mph 5.0 mph 45% 0.00 in 814 W/m2
12:26 51.7 °F 32.1 °F 30.10 in WNW 4.0 mph 5.0 mph 47% 0.00 in 819 W/m2
12:32 52.0 °F 33.4 °F 30.10 in WNW 5.0 mph 5.0 mph 49% 0.00 in 823 W/m2
12:38 52.0 °F 31.3 °F 30.10 in NNW 5.0 mph 9.0 mph 45% 0.00 in 826 W/m2
12:44 52.5 °F 31.8 °F 30.09 in SSW 4.0 mph 7.0 mph 45% 0.00 in 826 W/m2
12:50 51.8 °F 31.1 °F 30.09 in WNW 3.0 mph 4.0 mph 45% 0.00 in 543 W/m2
12:56 52.0 °F 32.4 °F 30.08 in WSW 4.0 mph 4.0 mph 47% 0.00 in 717 W/m2
13:02 52.5 °F 33.4 °F 30.08 in WNW 3.0 mph 4.0 mph 48% 0.00 in 816 W/m2
13:08 53.4 °F 35.2 °F 30.08 in NW 3.0 mph 6.0 mph 50% 0.00 in 657 W/m2
13:14 53.1 °F 32.3 °F 30.08 in WNW 3.0 mph 6.0 mph 45% 0.00 in 566 W/m2
13:20 52.7 °F 31.9 °F 30.08 in WNW 4.0 mph 4.0 mph 45% 0.00 in 691 W/m2
13:26 53.2 °F 32.4 °F 30.08 in WNW 5.0 mph 6.0 mph 45% 0.00 in 649 W/m2
13:32 53.1 °F 34.9 °F 30.08 in NNW 5.0 mph 8.0 mph 50% 0.00 in 568 W/m2
13:38 53.9 °F 34.1 °F 30.08 in WNW 5.0 mph 8.0 mph 47% 0.00 in 673 W/m2
13:44 53.2 °F 33.5 °F 30.08 in NW 5.0 mph 8.0 mph 47% 0.00 in 1123 W/m2
13:50 53.5 °F 34.3 °F 30.07 in NNW 5.0 mph 5.0 mph 48% 0.00 in 877 W/m2
13:56 53.2 °F 33.5 °F 30.07 in NNW 5.0 mph 7.0 mph 47% 0.00 in 844 W/m2
14:02 53.3 °F 34.1 °F 30.07 in NW 5.0 mph 6.0 mph 48% 0.00 in 752 W/m2
14:14 53.8 °F 36.1 °F 30.07 in WNW 4.0 mph 5.0 mph 51% 0.00 in 930 W/m2
14:20 54.1 °F 35.9 °F 30.07 in WNW 5.0 mph 5.0 mph 50% 0.00 in 930 W/m2
14:26 53.8 °F 35.6 °F 30.07 in West 5.0 mph 5.0 mph 50% 0.00 in 838 W/m2
14:32 54.1 °F 34.8 °F 30.07 in NW 5.0 mph 5.0 mph 48% 0.00 in 946 W/m2
14:38 54.2 °F 35.4 °F 30.07 in NE 5.0 mph 6.0 mph 49% 0.00 in 847 W/m2
14:44 53.5 °F 35.3 °F 30.07 in WNW 5.0 mph 5.0 mph 50% 0.00 in 779 W/m2
14:50 54.0 °F 33.7 °F 30.07 in North 4.0 mph 6.0 mph 46% 0.00 in 545 W/m2
15:02 53.6 °F 35.9 °F 30.07 in NW 5.0 mph 6.0 mph 51% 0.00 in 874 W/m2
15:08 54.2 °F 34.4 °F 30.07 in WNW 4.0 mph 6.0 mph 47% 0.00 in 842 W/m2
15:14 53.9 °F 33.6 °F 30.07 in NNW 4.0 mph 9.0 mph 46% 0.00 in 765 W/m2
15:20 54.7 °F 33.2 °F 30.07 in WNW 4.0 mph 4.0 mph 44% 0.00 in 735 W/m2
15:26 53.8 °F 31.8 °F 30.07 in NNW 5.0 mph 7.0 mph 43% 0.00 in 687 W/m2
15:32 53.7 °F 32.3 °F 30.07 in NW 5.0 mph 5.0 mph 44% 0.00 in 666 W/m2
15:38 53.9 °F 33.0 °F 30.07 in WNW 4.0 mph 5.0 mph 45% 0.00 in 659 W/m2
15:44 54.1 °F 33.8 °F 30.07 in NNW 4.0 mph 7.0 mph 46% 0.00 in 578 W/m2
15:50 54.8 °F 34.9 °F 30.07 in NW 3.0 mph 3.0 mph 47% 0.00 in 621 W/m2
15:58 54.5 °F 34.7 °F 30.07 in NNW 3.0 mph 8.0 mph 47% 0.00 in 566 W/m2
16:04 54.0 °F 33.1 °F 30.08 in NNW 4.0 mph 7.0 mph 45% 0.00 in 541 W/m2
16:10 53.8 °F 32.4 °F 30.07 in NW 5.0 mph 5.0 mph 44% 0.00 in 589 W/m2
16:16 54.5 °F 32.4 °F 30.08 in WNW 5.0 mph 5.0 mph 43% 0.00 in 592 W/m2
16:22 54.8 °F 32.7 °F 30.07 in WNW 5.0 mph 5.0 mph 43% 0.00 in 568 W/m2
16:28 55.1 °F 32.4 °F 30.07 in WSW 4.0 mph 5.0 mph 42% 0.00 in 547 W/m2
16:34 54.3 °F 32.8 °F 30.07 in NW 5.0 mph 5.0 mph 44% 0.00 in 520 W/m2
16:40 53.8 °F 32.9 °F 30.07 in NNW 5.0 mph 5.0 mph 45% 0.00 in 487 W/m2
16:46 54.2 °F 33.3 °F 30.07 in NW 5.0 mph 6.0 mph 45% 0.00 in 480 W/m2
16:52 54.6 °F 31.9 °F 30.07 in NNW 4.0 mph 6.0 mph 42% 0.00 in 468 W/m2
17:00 54.8 °F 30.3 °F 30.07 in WNW 4.0 mph 4.0 mph 39% 0.00 in 455 W/m2
17:06 54.4 °F 29.9 °F 30.06 in NW 4.0 mph 6.0 mph 39% 0.00 in 425 W/m2
17:12 54.4 °F 31.8 °F 30.06 in WNW 4.0 mph 4.0 mph 42% 0.00 in 371 W/m2
17:18 54.7 °F 30.8 °F 30.06 in WNW 3.0 mph 5.0 mph 40% 0.00 in 360 W/m2
17:24 54.3 °F 31.1 °F 30.06 in NW 4.0 mph 6.0 mph 41% 0.00 in 346 W/m2
17:30 54.1 °F 30.9 °F 30.06 in NNW 4.0 mph 4.0 mph 41% 0.00 in 318 W/m2
17:36 54.2 °F 30.4 °F 30.06 in WNW 3.0 mph 4.0 mph 40% 0.00 in 295 W/m2
17:42 53.8 °F 29.4 °F 30.06 in West 4.0 mph 8.0 mph 39% 0.00 in 257 W/m2
17:48 54.1 °F 32.1 °F 30.06 in WNW 3.0 mph 8.0 mph 43% 0.00 in 294 W/m2
17:54 54.3 °F 30.5 °F 30.06 in WNW 2.0 mph 3.0 mph 40% 0.00 in 269 W/m2
18:00 54.0 °F 30.2 °F 30.06 in NW 3.0 mph 3.0 mph 40% 0.00 in 151 W/m2
18:06 53.7 °F 29.9 °F 30.06 in WNW 2.0 mph 3.0 mph 40% 0.00 in 146 W/m2
18:12 53.4 °F 30.9 °F 30.06 in WNW 2.0 mph 3.0 mph 42% 0.00 in 118 W/m2
18:18 53.1 °F 30.0 °F 30.06 in WNW 2.0 mph 3.0 mph 41% 0.00 in 86 W/m2
18:24 52.8 °F 30.9 °F 30.06 in WNW 2.0 mph 3.0 mph 43% 0.00 in 107 W/m2
18:30 52.6 °F 31.3 °F 30.06 in NW 2.0 mph 2.0 mph 44% 0.00 in 88 W/m2
18:36 52.3 °F 31.0 °F 30.06 in NW 2.0 mph 3.0 mph 44% 0.00 in 83 W/m2
18:42 52.0 °F 30.2 °F 30.06 in NW 2.0 mph 2.0 mph 43% 0.00 in 79 W/m2
18:48 51.7 °F 31.0 °F 30.06 in WNW 2.0 mph 2.0 mph 45% 0.00 in 67 W/m2
18:54 51.6 °F 31.5 °F 30.06 in WNW 1.0 mph 2.0 mph 46% 0.00 in 54 W/m2
19:00 51.2 °F 31.1 °F 30.06 in WNW 1.0 mph 1.0 mph 46% 0.00 in 33 W/m2
19:06 50.9 °F 31.4 °F 30.06 in Calm   1.0 mph 47% 0.00 in 26 W/m2
19:12 50.5 °F 31.0 °F 30.06 in Calm     47% 0.00 in 21 W/m2
19:18 50.1 °F 31.2 °F 30.06 in Calm   1.0 mph 48% 0.00 in 14 W/m2
19:24 49.8 °F 31.4 °F 30.06 in Calm     49% 0.00 in 7 W/m2
19:30 49.4 °F 31.0 °F 30.06 in Calm     49% 0.00 in 0 W/m2
19:36 49.0 °F 31.2 °F 30.05 in Calm     50% 0.00 in 0 W/m2
19:42 48.4 °F 30.6 °F 30.06 in Calm     50% 0.00 in 0 W/m2
19:48 47.9 °F 31.1 °F 30.05 in Calm     52% 0.00 in 0 W/m2
19:54 47.1 °F 31.7 °F 30.06 in Calm     55% 0.00 in 0 W/m2
20:00 46.3 °F 32.3 °F 30.06 in Calm     58% 0.00 in 0 W/m2
20:05 45.6 °F 31.2 °F 30.06 in Calm     57% 0.00 in 0 W/m2
20:12 45.1 °F 31.2 °F 30.06 in Calm     58% 0.00 in 0 W/m2
20:18 44.5 °F 31.1 °F 30.06 in Calm     59% 0.00 in 0 W/m2
20:24 43.9 °F 31.7 °F 30.05 in Calm     62% 0.00 in 0 W/m2
20:29 43.4 °F 32.0 °F 30.05 in Calm     64% 0.00 in 0 W/m2
20:36 42.9 °F 31.6 °F 30.05 in Calm     64% 0.00 in 0 W/m2
20:42 42.4 °F 31.1 °F 30.05 in Calm     64% 0.00 in 0 W/m2
20:48 42.1 °F 31.2 °F 30.05 in Calm     65% 0.00 in 0 W/m2
20:53 42.0 °F 31.5 °F 30.05 in Calm     66% 0.00 in 0 W/m2
21:00 41.8 °F 31.3 °F 30.05 in Calm     66% 0.00 in 0 W/m2
21:06 41.5 °F 31.0 °F 30.05 in Calm     66% 0.00 in 0 W/m2
21:12 41.2 °F 31.1 °F 30.05 in Calm     67% 0.00 in 0 W/m2
21:18 40.9 °F 31.5 °F 30.06 in Calm     69% 0.00 in 0 W/m2
21:24 40.7 °F 31.3 °F 30.06 in Calm     69% 0.00 in 0 W/m2
21:30 40.4 °F 31.7 °F 30.06 in Calm     71% 0.00 in 0 W/m2
21:36 40.1 °F 31.1 °F 30.06 in Calm     70% 0.00 in 0 W/m2
21:42 39.9 °F 30.9 °F 30.06 in Calm     70% 0.00 in 0 W/m2
21:48 39.8 °F 31.5 °F 30.06 in Calm     72% 0.00 in 0 W/m2
21:54 39.7 °F 31.1 °F 30.06 in Calm     71% 0.00 in 0 W/m2
22:00 39.5 °F 31.2 °F 30.06 in Calm     72% 0.00 in 0 W/m2
22:06 39.2 °F 30.9 °F 30.05 in Calm     72% 0.00 in 0 W/m2
22:14 38.9 °F 30.6 °F 30.05 in Calm     72% 0.00 in 0 W/m2
22:20 38.8 °F 31.2 °F 30.05 in Calm     74% 0.00 in 0 W/m2
22:26 38.8 °F 31.2 °F 30.05 in Calm     74% 0.00 in 0 W/m2
22:32 38.9 °F 31.6 °F 30.05 in Calm     75% 0.00 in 0 W/m2
22:38 39.1 °F 31.8 °F 30.06 in Calm     75% 0.00 in 0 W/m2
22:44 39.2 °F 32.3 °F 30.06 in Calm     76% 0.00 in 0 W/m2
22:50 39.4 °F 32.5 °F 30.06 in Calm     76% 0.00 in 0 W/m2
22:56 39.5 °F 32.6 °F 30.06 in Calm     76% 0.00 in 0 W/m2
23:02 39.7 °F 32.8 °F 30.05 in Calm     76% 0.00 in 0 W/m2
23:08 39.9 °F 33.3 °F 30.05 in Calm     77% 0.00 in 0 W/m2
23:13 40.0 °F 34.0 °F 30.05 in Calm     79% 0.00 in 0 W/m2
23:20 40.2 °F 33.9 °F 30.05 in Calm     78% 0.00 in 0 W/m2
23:26 40.2 °F 33.6 °F 30.06 in Calm     77% 0.00 in 0 W/m2
23:32 40.4 °F 33.8 °F 30.05 in Calm     77% 0.00 in 0 W/m2
23:38 40.5 °F 33.9 °F 30.06 in Calm     77% 0.00 in 0 W/m2
23:44 40.6 °F 34.0 °F 30.05 in Calm     77% 0.00 in 0 W/m2
23:50 40.6 °F 33.6 °F 30.06 in Calm     76% 0.00 in 0 W/m2
23:55 40.5 °F 33.2 °F 30.05 in Calm     75% 0.00 in 0 W/m2
Country Meadow, Clay, NY, USA
Compliments of Weather Underground - 2 mb